Terminal Aerodrome Forecast
Issued by NWS

Home | Current Version | Previous Version | Graphics & Text | Print | Product List | Glossary On
Versions: 1 2 3 4 5 6 7 8 9 10 11 12 13 14 15 16 17 18 19 20 21 22 23 24 25 26 27 28 29 30 31 32 33 34 35 36
000
FTUS43 KGRB 170251 AAB
TAFATW
TAF AMD
KATW 170251Z 1703/1724 06005KT 3SM -FZRA BR OVC006
      TEMPO 1703/1706 2SM -RA BR OVC003
     FM170800 03009KT 1 1/2SM -RA BR OVC003
     FM171500 01009KT 5SM -SHSN BR OVC010
     FM172000 33007KT P6SM BKN030=

USA.gov is the U.S. government's official web portal to all federal, state and local government web resources and services.